Terminal Aerodrome Forecast
Issued by NWS Northern Indiana

Home | Current Version | Previous Version | Graphics & Text | Print | Product List | Glossary On
Versions: 1 2 3 4 5 6 7 8 9 10 11 12 13 14
000
FTUS43 KIWX 241700 RRA
TAFFWA
TAF
KFWA 241741Z 2418/2518 27011KT P6SM BKN012 OVC035
     FM242200 25007KT P6SM SCT015
     FM250200 VRB03KT P6SM BKN015
     FM251200 08007KT 5SM -SN OVC015
     FM251400 07014G22KT 1SM -SN OVC008=

USA.gov is the U.S. government's official web portal to all federal, state and local government web resources and services.